Logo AVAMET
Benvolgut visitant, si us plau, ingressa Recuperar contrasenya

Portell de Morella

Dades diàries. Acumulats / Últims 30 dies disponibles

Data Temperatura (°C) Humitat rel. (%) Pressió rel. (hPa) Vent (km/h) Precipi-
tació (mm)
Mínima Mitjana Màxima Mínima Mitjana Màxima Mínima Mitjana Màxima Predom. Mitjana Ràfega
màxima
Mínima Mitjana Màxima Mínima Mitjana Màxima
Dades mensuals acumulades fins l'últim dia disponible
11/2017 -1,9 3,7 9,7 8,2 7,7 14,3 20,9   11,9 90,1 0,0
Dades anuals acumulades fins l'últim dia disponible
2017 -6,9 8,5 20,9 13,7 -1,4 19,4 34,3   7,9 91,7 282,2
Últims 30 dies disponibles
22-11-2017 3,4     9,6     18,1 SSE 1,6 16,1 0,0
21-11-2017 3,5     9,9     18,9 NE 1,0 16,1 0,0
20-11-2017 1,6     8,7     18,2 WSW 1,1 14,5 0,0
19-11-2017 -0,2     6,8     15,8 WSW 1,3 16,1 0,0
18-11-2017 2,2     7,6     14,5 SW 2,1 22,5 0,0
17-11-2017 3,0     8,9     17,5 NE 1,9 16,1 0,0
16-11-2017 2,2     7,9     15,4 W 1,6 16,1 0,0
15-11-2017 -1,9     6,1     16,6 NE 1,4 12,9 0,0
14-11-2017 -0,2     4,3     10,1 W 17,2 67,6 0,0
13-11-2017 1,5     5,4     10,2 W 30,3 90,1 0,0
12-11-2017 7,1     10,2     15,1 W 23,7 82,1 0,0
11-11-2017 7,5     9,3     13,0 W 19,8 51,5 0,0
10-11-2017 2,8     6,8     10,8 W 20,1 61,2 0,0
09-11-2017 2,4     4,5     7,7 W 20,6 51,5 0,0
08-11-2017 2,8     6,4     9,1 W 19,3 59,5 0,0
07-11-2017 1,9     6,6     13,1 W 20,1 64,4 0,0
06-11-2017 3,5     5,6     8,2 W 34,6 77,2 0,0
05-11-2017 5,9     8,6     10,5 W 27,8 64,4 0,0
04-11-2017 9,7     12,1     15,9 W 5,0 30,6 0,0
03-11-2017 7,2     12,6     20,9 ESE 2,4 27,4 0,0
02-11-2017 7,9     11,9     17,0 ESE 4,0 25,7 0,0
01-11-2017 7,0     11,6     17,1 ESE 5,3 27,4 0,0
31-10-2017 3,7     9,8     15,8 ESE 5,1 30,6 0,0
30-10-2017 6,9     10,9     16,0 W 12,1 41,8 0,0
29-10-2017 4,2     10,5     18,2 W 4,5 27,4 0,0
28-10-2017 8,8     13,0     18,4 W 11,1 53,1 0,0
27-10-2017 10,2     16,4     23,8 W 9,0 37,0 0,0
26-10-2017 10,8     17,5     26,6 SSE 1,4 20,9 0,0
25-10-2017 9,8     16,3     24,4 ESE 3,1 25,7 0,0
24-10-2017 7,9     15,4     24,0 ENE 2,9 17,7 0,0
Últims 13 mesos disponibles
10/2017 2,9 9,4 14,3 14,9 13,3 21,4 26,8 6,1 53,1 6,1
09/2017 4,9 11,0 16,1 16,2 11,8 22,4 27,0 6,3 66,0 2,8
08/2017 9,2 15,5 20,9 21,1 19,0 27,1 33,5 6,5 69,2 51,4
07/2017 8,7 15,5 20,2 21,3 18,3 27,4 34,3 7,7 54,7 42,0
06/2017 8,8 14,8 20,5 20,5 15,3 26,6 32,6 6,4 74,0 25,0
05/2017 3,3 10,0 15,0 15,4 15,1 20,9 27,1 7,0 56,3 8,5
04/2017 -0,6 4,7 11,4 10,4 7,8 16,6 24,4 6,6 61,2 24,6
03/2017 -0,7 4,4 11,8 9,6 6,3 15,4 24,7 7,7 86,9 43,4
02/2017 -1,2 2,6 7,9 6,9 4,5 12,1 17,1 9,2 91,7 26,7
01/2017 -6,9 0,1 6,5 3,7 -1,4 7,8 16,8 13,1 83,7 51,7
12/2016 -0,7 2,5 7,8 6,1 3,2 11,0 18,0 3,8 53,1 66,7
11/2016 -1,4 4,6 11,8 8,2 6,9 12,5 21,6 7,2 90,1 87,6
10/2016 3,5 9,3 13,4 13,8 12,0 19,3 25,4 3,4 41,8 32,8
Tots els anys disponibles
2016 -7,8 7,7 22,4 12,3 3,2 17,6 33,6 7,4 111,0 478,7
Temperatura (°C)
Humitat relativa (%)
Velocitat del vent (km/h) i direcció (°)
Pressió (hPa) i precipitació (mm)
Nota sobre les dades: s'avisa a l'usuari de la provisionalitat i no oficialitat d'aquestes dades
Logo AVAMET blanc
Llicència de Creative CommonsLa web d'AVAMET i els seus continguts estan subjectes a una llicència de
Reconeixement - No Comercial - Compartir igual
Properes estacions: Los Isidros, Los Ruices (soci), - - - Últimes estacions: Rubiales (soci), Albocàsser - la Llacuna (AMEAL), Sagunt - Racó de Gausa (soci), Sagunt - els Arenals (soci), El Puig - la Lloma (soci), Nàquera - Germanells (soci) - - - - - - - - - - - - Properes estacions: Los Isidros, Los Ruices (soci), - - - Últimes estacions: Rubiales (soci), Albocàsser - la Llacuna (AMEAL), Sagunt - Racó de Gausa (soci), Sagunt - els Arenals (soci), El Puig - la Lloma (soci), Nàquera - Germanells (soci)